Time;durP1;ratioP1;P1;durP2;ratioP2;P2;SDS_P1;SDS_P2;PMS_P1;PMS_P2;Temp;Humidity;BMP_temperature;BMP_pressure;BME280_temperature;BME280_humidity;BME280_pressure;Samples;Min_cycle;Max_cycle;Signal;HPM_P1;HPM_P2
2021/11/25 00:03:22;;;;;;;13.75;8.43;;;;;;;2.39;64.58;99612.59;10384449;28;20041;-67
2021/11/25 00:08:24;;;;;;;11.85;8.15;;;;;;;2.44;64.46;99617.59;10386272;28;20045;-65
2021/11/25 00:13:26;;;;;;;11.68;7.85;;;;;;;2.55;64.30;99603.47;10386037;28;20313;-65
2021/11/25 00:18:28;;;;;;;15.20;8.68;;;;;;;2.41;64.48;99599.63;10386354;28;20347;-65
2021/11/25 00:23:29;;;;;;;9.95;7.53;;;;;;;2.47;64.61;99587.38;10385012;28;20416;-64
2021/11/25 00:28:32;;;;;;;11.35;7.50;;;;;;;2.62;64.42;99594.59;10385396;28;20060;-65
2021/11/25 00:33:34;;;;;;;12.32;7.80;;;;;;;2.57;64.36;99587.91;10383678;28;20308;-65
2021/11/25 00:38:36;;;;;;;11.27;8.63;;;;;;;2.53;64.36;99592.34;10384615;28;20050;-65
2021/11/25 00:43:38;;;;;;;11.23;8.32;;;;;;;2.68;64.33;99586.66;10384498;28;20049;-65
2021/11/25 00:48:40;;;;;;;13.15;8.30;;;;;;;2.80;63.95;99572.50;10385059;28;20220;-65
2021/11/25 00:53:42;;;;;;;12.30;9.02;;;;;;;2.75;64.02;99562.31;10384405;28;20521;-64
2021/11/25 00:58:43;;;;;;;10.52;7.95;;;;;;;2.79;63.98;99556.16;10385194;28;20049;-65
2021/11/25 01:03:45;;;;;;;12.25;7.65;;;;;;;2.82;64.16;99553.50;10384381;28;20528;-65
2021/11/25 01:08:47;;;;;;;13.57;8.88;;;;;;;2.80;63.97;99554.44;10383154;28;20386;-65
2021/11/25 01:14:09;;;;;;;13.60;9.80;;;;;;;2.77;63.97;99549.34;10383275;28;20057;-65
2021/11/25 01:19:11;;;;;;;12.02;8.90;;;;;;;2.74;64.50;99555.50;10384031;28;20413;-65
2021/11/25 01:24:12;;;;;;;12.25;8.95;;;;;;;2.89;64.28;99554.94;10383481;28;20296;-64
2021/11/25 01:29:14;;;;;;;14.98;8.43;;;;;;;2.97;64.02;99555.53;10383752;28;20132;-65
2021/11/25 01:34:16;;;;;;;9.70;7.88;;;;;;;3.02;63.83;99557.94;10382875;28;20045;-64
2021/11/25 01:39:18;;;;;;;10.88;8.10;;;;;;;2.99;63.88;99556.31;10383649;28;20043;-64
2021/11/25 01:44:19;;;;;;;13.55;8.35;;;;;;;2.99;63.85;99545.97;10383114;28;20583;-64
2021/11/25 01:49:21;;;;;;;11.57;8.25;;;;;;;3.03;63.95;99542.41;10383033;28;20051;-64
2021/11/25 01:54:24;;;;;;;12.20;8.52;;;;;;;3.00;63.87;99552.84;10381292;28;20049;-64
2021/11/25 01:59:26;;;;;;;13.45;8.20;;;;;;;2.96;63.73;99530.59;10382648;28;20064;-64
2021/11/25 02:04:27;;;;;;;12.48;8.40;;;;;;;2.94;63.95;99541.88;10382941;28;20136;-64
2021/11/25 02:09:29;;;;;;;11.30;7.80;;;;;;;2.97;63.89;99532.28;10380846;28;20468;-64
2021/11/25 02:14:31;;;;;;;12.40;8.85;;;;;;;3.02;63.95;99516.63;10381722;28;20055;-64
2021/11/25 02:19:34;;;;;;;9.57;7.63;;;;;;;3.08;63.94;99508.66;10382754;28;20041;-64
2021/11/25 02:24:36;;;;;;;11.43;8.55;;;;;;;3.09;63.98;99510.31;10383425;28;20056;-64
2021/11/25 02:29:40;;;;;;;12.63;9.10;;;;;;;3.06;63.67;99505.28;10381605;28;20045;-65
2021/11/25 02:34:42;;;;;;;12.35;9.13;;;;;;;2.94;63.83;99501.41;10382304;28;20301;-64
2021/11/25 02:39:43;;;;;;;11.30;8.43;;;;;;;2.68;64.59;99501.44;10381656;28;20054;-64
2021/11/25 02:44:46;;;;;;;10.80;8.38;;;;;;;2.80;64.41;99503.63;10381781;28;20056;-64
2021/11/25 02:49:47;;;;;;;12.45;8.93;;;;;;;2.86;64.49;99498.25;10380366;28;20862;-64
2021/11/25 02:54:49;;;;;;;12.85;8.88;;;;;;;3.02;64.27;99506.28;10382204;28;20060;-64
2021/11/25 02:59:52;;;;;;;12.95;8.38;;;;;;;3.00;63.95;99503.78;10386942;28;20056;-65
2021/11/25 03:04:53;;;;;;;11.20;7.97;;;;;;;2.86;64.34;99500.84;10395749;28;20058;-64
2021/11/25 03:09:55;;;;;;;11.63;7.43;;;;;;;2.96;64.49;99497.03;10396383;28;20047;-65
2021/11/25 03:14:57;;;;;;;10.40;8.52;;;;;;;2.74;64.24;99500.41;10395271;28;20057;-64
2021/11/25 03:19:58;;;;;;;12.65;8.65;;;;;;;2.67;65.08;99501.50;10395857;28;20409;-64
2021/11/25 03:25:00;;;;;;;10.32;7.65;;;;;;;2.90;64.54;99484.34;10395420;28;20083;-64
2021/11/25 03:30:02;;;;;;;10.73;8.43;;;;;;;2.76;64.76;99476.25;10395719;28;20049;-64
2021/11/25 03:35:04;;;;;;;12.95;9.10;;;;;;;2.77;64.79;99480.50;10395532;28;20052;-64
2021/11/25 03:40:08;;;;;;;14.02;9.93;;;;;;;2.93;64.50;99480.78;10394816;28;20559;-65
2021/11/25 03:45:10;;;;;;;12.18;8.80;;;;;;;2.83;64.86;99480.28;10394846;28;20510;-64
2021/11/25 03:50:14;;;;;;;14.35;9.68;;;;;;;2.90;64.80;99476.59;10395114;28;20049;-64
2021/11/25 03:55:18;;;;;;;12.35;9.20;;;;;;;2.74;65.01;99467.72;10394696;28;20053;-64
2021/11/25 04:00:22;;;;;;;14.38;10.00;;;;;;;2.82;64.93;99459.69;10394854;28;20505;-64
2021/11/25 04:05:24;;;;;;;13.38;9.20;;;;;;;2.86;64.78;99469.00;10389165;28;20045;-64
2021/11/25 04:10:26;;;;;;;13.75;10.00;;;;;;;3.02;64.77;99473.56;10386694;28;20045;-64
2021/11/25 04:15:28;;;;;;;14.98;10.57;;;;;;;3.02;64.70;99481.31;10387155;28;20059;-64
2021/11/25 04:20:30;;;;;;;13.45;9.75;;;;;;;3.07;64.42;99469.97;10386907;28;20091;-64
2021/11/25 04:25:34;;;;;;;16.58;10.32;;;;;;;2.99;64.65;99465.91;10387153;28;20124;-64
2021/11/25 04:35:41;;;;;;;13.43;10.50;;;;;;;2.82;64.87;99445.03;10385902;28;20056;-64
2021/11/25 04:40:50;;;;;;;14.85;11.00;;;;;;;2.81;65.04;99451.06;10385935;28;20577;-64
2021/11/25 04:45:53;;;;;;;13.98;10.00;;;;;;;2.77;65.52;99444.34;10385363;28;20046;-64
2021/11/25 04:50:56;;;;;;;14.65;10.45;;;;;;;2.91;64.93;99447.25;10385555;28;20407;-64
2021/11/25 04:55:58;;;;;;;14.60;11.30;;;;;;;2.82;65.05;99439.88;10385453;28;20263;-64
2021/11/25 05:01:01;;;;;;;13.90;10.18;;;;;;;2.94;64.84;99448.91;10385192;28;20420;-63
2021/11/25 05:06:03;;;;;;;15.82;10.55;;;;;;;2.95;64.93;99451.41;10384582;28;20601;-64
2021/11/25 05:11:05;;;;;;;15.05;10.90;;;;;;;2.84;65.14;99432.06;10385065;28;20053;-64
2021/11/25 05:16:08;;;;;;;13.13;10.25;;;;;;;2.94;65.01;99433.41;10383776;28;20088;-64
2021/11/25 05:21:10;;;;;;;20.98;13.77;;;;;;;2.89;65.16;99445.63;10385178;28;20054;-64
2021/11/25 05:26:12;;;;;;;13.93;10.18;;;;;;;2.85;65.53;99450.06;10384505;28;20447;-64
2021/11/25 05:31:13;;;;;;;16.17;11.80;;;;;;;2.93;65.00;99448.06;10384332;28;20053;-63
2021/11/25 05:36:15;;;;;;;16.75;10.73;;;;;;;3.03;65.01;99446.81;10382226;28;20052;-63
2021/11/25 05:41:17;;;;;;;15.65;11.15;;;;;;;3.02;64.81;99432.22;10383707;28;20490;-63
2021/11/25 05:46:19;;;;;;;20.35;12.07;;;;;;;2.95;65.13;99430.75;10383716;28;20052;-64
2021/11/25 05:51:20;;;;;;;15.95;11.50;;;;;;;2.99;65.12;99424.56;10383791;28;20049;-64
2021/11/25 05:56:22;;;;;;;15.57;11.75;;;;;;;3.12;64.97;99416.38;10383183;28;20726;-64
2021/11/25 06:01:24;;;;;;;18.08;11.98;;;;;;;3.18;64.60;99421.31;10382182;28;20519;-64
2021/11/25 06:06:26;;;;;;;19.13;13.05;;;;;;;3.20;64.65;99419.50;10384013;28;20041;-63
2021/11/25 06:11:28;;;;;;;16.15;11.52;;;;;;;3.02;64.95;99405.56;10384060;28;20049;-64
2021/11/25 06:16:30;;;;;;;16.55;13.57;;;;;;;2.93;65.19;99405.88;10382750;28;20054;-64
2021/11/25 06:21:32;;;;;;;16.77;12.88;;;;;;;3.01;65.13;99403.84;10382847;28;20053;-64
2021/11/25 06:26:39;;;;;;;17.90;11.82;;;;;;;3.02;65.06;99416.72;10382092;28;20429;-63
2021/11/25 06:31:41;;;;;;;16.80;12.45;;;;;;;3.13;64.91;99413.72;10383541;28;20517;-64
2021/11/25 06:36:43;;;;;;;17.15;11.95;;;;;;;3.11;64.77;99406.94;10390326;28;20536;-64
2021/11/25 06:41:44;;;;;;;19.00;14.02;;;;;;;3.18;64.97;99400.63;10389387;28;20057;-64
2021/11/25 06:46:47;;;;;;;18.15;12.18;;;;;;;3.21;64.78;99406.56;10389672;28;20441;-64
2021/11/25 06:51:49;;;;;;;23.42;15.57;;;;;;;3.28;64.58;99418.31;10390711;28;20068;-64
2021/11/25 06:56:51;;;;;;;20.63;13.00;;;;;;;3.30;64.69;99415.66;10390096;28;20059;-63
2021/11/25 07:01:52;;;;;;;20.67;12.13;;;;;;;3.28;64.55;99414.88;10389104;28;20046;-63
2021/11/25 07:06:54;;;;;;;20.05;14.38;;;;;;;3.23;64.75;99420.25;10389455;28;20064;-64
2021/11/25 07:11:56;;;;;;;15.23;11.52;;;;;;;3.24;64.59;99426.25;10388969;28;20131;-64
2021/11/25 07:16:58;;;;;;;16.75;12.15;;;;;;;3.28;64.55;99432.97;10389356;28;20049;-63
2021/11/25 07:21:59;;;;;;;17.75;14.35;;;;;;;3.40;64.35;99438.53;10389217;28;20061;-64
2021/11/25 07:27:03;;;;;;;28.10;15.30;;;;;;;3.44;63.99;99436.66;10388524;28;20100;-64
2021/11/25 07:32:05;;;;;;;20.95;13.50;;;;;;;3.31;64.22;99432.88;10388696;28;20505;-63
2021/11/25 07:37:07;;;;;;;21.30;13.57;;;;;;;3.30;64.36;99434.59;10388274;28;20497;-64
2021/11/25 07:42:09;;;;;;;17.33;12.40;;;;;;;3.35;64.28;99413.75;10387909;28;20057;-64
2021/11/25 07:47:12;;;;;;;19.45;11.88;;;;;;;3.46;64.18;99421.91;10385403;28;20139;-64
2021/11/25 07:52:13;;;;;;;20.40;13.52;;;;;;;3.35;64.19;99424.94;10388631;28;20495;-64
2021/11/25 07:57:15;;;;;;;16.50;13.00;;;;;;;3.24;64.61;99415.91;10385829;28;20045;-64
2021/11/25 08:02:19;;;;;;;17.88;13.38;;;;;;;3.37;64.41;99417.97;10388239;28;20458;-64
2021/11/25 08:07:21;;;;;;;14.90;12.02;;;;;;;3.45;64.33;99425.44;10387275;28;20064;-64
2021/11/25 08:12:22;;;;;;;16.67;12.32;;;;;;;3.58;64.08;99429.19;10387815;28;20045;-64
2021/11/25 08:17:24;;;;;;;15.20;12.43;;;;;;;3.58;63.74;99429.19;10387020;28;20059;-64
2021/11/25 08:22:26;;;;;;;18.60;13.00;;;;;;;3.65;63.88;99420.31;10387171;28;21386;-64
2021/11/25 08:27:28;;;;;;;21.90;16.40;;;;;;;3.60;63.65;99438.59;10385978;28;20045;-64
2021/11/25 08:32:29;;;;;;;20.90;16.13;;;;;;;3.60;63.89;99436.00;10385413;28;20049;-63
2021/11/25 08:37:32;;;;;;;16.73;13.68;;;;;;;3.54;63.93;99450.91;10380516;28;20064;-64
2021/11/25 08:42:34;;;;;;;17.27;13.43;;;;;;;3.50;64.17;99449.34;10381758;28;20049;-65
2021/11/25 08:47:36;;;;;;;19.77;13.43;;;;;;;3.49;64.12;99452.84;10385554;28;20049;-64
2021/11/25 08:52:38;;;;;;;19.17;13.45;;;;;;;3.55;64.11;99453.44;10385151;28;20414;-64
2021/11/25 08:57:40;;;;;;;18.92;14.30;;;;;;;3.60;63.74;99445.53;10385159;28;20506;-65
2021/11/25 09:02:42;;;;;;;19.77;14.80;;;;;;;3.64;63.74;99450.50;10387091;28;20057;-65
2021/11/25 09:07:44;;;;;;;19.08;14.25;;;;;;;3.62;63.54;99438.53;10386013;28;20140;-74
2021/11/25 09:12:46;;;;;;;20.25;14.48;;;;;;;3.55;63.78;99435.34;10385770;28;20049;-74
2021/11/25 09:17:57;;;;;;;20.17;15.27;;;;;;;3.66;63.53;99445.28;10385686;28;20053;-74
2021/11/25 09:23:01;;;;;;;19.08;14.77;;;;;;;3.92;62.89;99429.59;10384518;28;20053;-75
2021/11/25 09:28:03;;;;;;;20.52;14.80;;;;;;;3.94;62.99;99448.47;10386216;28;20053;-74
2021/11/25 09:33:06;;;;;;;19.45;15.13;;;;;;;4.03;62.80;99445.50;10385204;28;20056;-74
2021/11/25 09:38:10;;;;;;;18.52;14.32;;;;;;;4.12;62.57;99439.97;10385435;28;20053;-75
2021/11/25 09:43:20;;;;;;;18.88;14.27;;;;;;;4.28;62.36;99443.59;10383692;28;20058;-74
2021/11/25 09:48:24;;;;;;;17.77;13.83;;;;;;;4.29;61.99;99447.03;10385686;28;20160;-74
2021/11/25 09:53:28;;;;;;;20.55;15.80;;;;;;;4.13;62.17;99449.38;10384997;28;20613;-74
2021/11/25 09:58:31;;;;;;;19.55;14.82;;;;;;;4.06;62.02;99449.72;10385456;28;20057;-74
2021/11/25 10:03:35;;;;;;;23.90;15.80;;;;;;;4.19;61.91;99446.53;10383639;28;20144;-72
2021/11/25 10:08:48;;;;;;;19.83;14.93;;;;;;;4.34;61.47;99456.28;10387698;28;20103;-74
2021/11/25 10:13:56;;;;;;;19.35;14.98;;;;;;;4.36;61.47;99459.63;10392916;28;20129;-72
2021/11/25 10:19:07;;;;;;;19.08;14.85;;;;;;;4.47;61.75;99477.31;10392322;28;20059;-74
2021/11/25 10:24:10;;;;;;;22.77;14.38;;;;;;;4.42;61.54;99472.31;10393336;28;20045;-79
2021/11/25 10:29:12;;;;;;;19.17;13.65;;;;;;;4.50;61.38;99477.16;10392767;28;20536;-74
2021/11/25 10:34:22;;;;;;;18.17;14.57;;;;;;;4.47;60.71;99444.50;10387816;28;20136;-75
2021/11/25 10:44:58;;;;;;;19.70;14.18;;;;;;;4.52;60.40;99434.78;10391967;28;20168;-73
2021/11/25 10:50:02;;;;;;;21.30;12.95;;;;;;;4.61;59.96;99430.94;10391560;28;20486;-74
2021/11/25 10:55:08;;;;;;;18.05;13.52;;;;;;;4.76;59.94;99426.84;10391502;28;20045;-73
2021/11/25 11:00:23;;;;;;;19.80;13.77;;;;;;;4.93;59.55;99416.56;10391136;28;20077;-73
2021/11/25 11:05:25;;;;;;;18.45;13.85;;;;;;;5.10;59.52;99409.72;10391816;28;20133;-74
2021/11/25 11:10:28;;;;;;;17.50;12.32;;;;;;;5.17;59.02;99398.16;10390721;28;20119;-74
2021/11/25 11:15:51;;;;;;;19.08;12.73;;;;;;;5.26;58.04;99386.53;10389345;28;20057;-74
2021/11/25 11:20:52;;;;;;;15.68;12.40;;;;;;;5.45;58.17;99382.97;10389981;28;20057;-74
2021/11/25 11:25:55;;;;;;;15.13;11.10;;;;;;;5.55;57.56;99373.84;10389949;28;20045;-72
2021/11/25 11:30:56;;;;;;;14.50;11.00;;;;;;;5.55;57.26;99373.03;10390332;28;20049;-73
2021/11/25 11:36:00;;;;;;;14.55;10.35;;;;;;;5.79;56.64;99389.16;10391143;28;20772;-74
2021/11/25 11:41:03;;;;;;;11.77;9.57;;;;;;;5.99;55.96;99369.09;10390087;28;20050;-74
2021/11/25 11:46:05;;;;;;;10.98;8.23;;;;;;;6.13;54.86;99365.78;10389907;28;20057;-73
2021/11/25 11:51:16;;;;;;;11.40;8.68;;;;;;;5.97;53.34;99355.34;10388016;28;20077;-74
2021/11/25 11:56:18;;;;;;;10.87;8.63;;;;;;;5.90;54.49;99353.97;10390616;28;20406;-73
2021/11/25 12:01:26;;;;;;;10.82;7.88;;;;;;;6.06;53.55;99354.88;10389089;28;20061;-73
2021/11/25 12:06:47;;;;;;;11.85;9.38;;;;;;;6.05;52.72;99358.38;10389702;28;20057;-75
2021/11/25 12:11:50;;;;;;;;;;;;;;;5.74;52.17;99352.22;10388381;28;20073;-73
2021/11/25 12:17:02;;;;;;;12.43;7.60;;;;;;;6.38;52.35;99336.84;10388775;28;20401;-73
2021/11/25 12:22:13;;;;;;;9.85;7.03;;;;;;;6.38;50.62;99348.06;10386209;28;20089;-74
2021/11/25 12:27:33;;;;;;;12.20;6.82;;;;;;;6.30;50.69;99343.28;10388349;28;20489;-73
2021/11/25 12:37:48;;;;;;;12.70;9.15;;;;;;;6.45;51.63;99333.84;10387242;28;20057;-73
2021/11/25 12:43:24;;;;;;;9.90;7.00;;;;;;;6.21;52.13;99337.66;10386753;28;20624;-74
2021/11/25 12:48:34;;;;;;;9.68;7.63;;;;;;;6.16;51.31;99331.91;10387514;28;20053;-72
2021/11/25 12:53:38;;;;;;;11.17;8.17;;;;;;;6.15;52.30;99317.22;10385994;28;20045;-73
2021/11/25 12:58:52;;;;;;;12.40;7.50;;;;;;;6.17;50.74;99316.22;10386853;28;20053;-73
2021/11/25 13:04:21;;;;;;;12.05;9.48;;;;;;;6.12;50.76;99330.38;10385270;28;20063;-72
2021/11/25 13:09:29;;;;;;;10.98;8.00;;;;;;;6.13;51.79;99319.91;10385351;28;20487;-73
2021/11/25 13:14:32;;;;;;;10.00;7.38;;;;;;;6.23;51.76;99305.53;10386945;28;20145;-73
2021/11/25 13:19:36;;;;;;;9.18;6.90;;;;;;;6.18;51.16;99297.16;10385105;28;20049;-74
2021/11/25 13:24:43;;;;;;;8.77;6.93;;;;;;;6.15;51.41;99302.50;10386448;28;20053;-72
2021/11/25 13:29:49;;;;;;;10.45;7.10;;;;;;;6.21;51.01;99301.31;10386980;28;20092;-74
2021/11/25 13:34:56;;;;;;;11.07;7.22;;;;;;;6.21;50.55;99296.97;10385019;28;20142;-72
2021/11/25 13:40:00;;;;;;;8.68;6.95;;;;;;;6.17;50.78;99285.06;10383272;28;20064;-73
2021/11/25 13:45:04;;;;;;;10.75;6.78;;;;;;;5.90;51.04;99291.66;10385302;28;20420;-73
2021/11/25 13:50:09;;;;;;;8.82;6.57;;;;;;;5.84;50.97;99294.59;10383646;28;20057;-74
2021/11/25 13:55:14;;;;;;;9.00;6.35;;;;;;;5.67;51.40;99298.94;10385387;28;20474;-73
2021/11/25 14:00:20;;;;;;;10.57;6.40;;;;;;;5.54;51.22;99296.97;10383432;28;20041;-73
2021/11/25 14:05:21;;;;;;;8.23;6.25;;;;;;;5.56;51.87;99312.44;10383917;28;20485;-72
2021/11/25 14:10:24;;;;;;;8.48;6.55;;;;;;;5.53;51.58;99318.59;10384120;28;20573;-74
2021/11/25 14:15:30;;;;;;;9.30;5.90;;;;;;;5.38;51.77;99321.97;10384375;28;20064;-73
2021/11/25 14:20:36;;;;;;;9.88;6.20;;;;;;;5.43;51.91;99311.38;10384201;28;20042;-73
2021/11/25 14:25:41;;;;;;;7.90;6.20;;;;;;;5.51;51.75;99320.44;10384101;28;20056;-73
2021/11/25 14:30:42;;;;;;;7.97;6.40;;;;;;;5.47;52.30;99326.69;10382447;28;20054;-74
2021/11/25 14:35:45;;;;;;;9.55;6.43;;;;;;;5.54;51.92;99320.31;10384217;28;20197;-72
2021/11/25 14:40:59;;;;;;;10.20;7.07;;;;;;;5.54;51.93;99319.47;10384142;28;20049;-73
2021/11/25 14:46:01;;;;;;;19.73;11.25;;;;;;;5.57;52.33;99318.47;10383818;28;20049;-73
2021/11/25 14:51:09;;;;;;;11.10;7.18;;;;;;;5.60;52.07;99319.16;10382931;28;20179;-74
2021/11/25 14:56:15;;;;;;;19.67;10.45;;;;;;;5.60;52.23;99306.19;10388232;28;20410;-72
2021/11/25 15:01:17;;;;;;;10.05;7.25;;;;;;;5.44;52.79;99302.66;10390603;28;20156;-74
2021/11/25 15:06:38;;;;;;;12.32;7.38;;;;;;;5.40;52.84;99316.69;10386000;28;20160;-74
2021/11/25 15:11:43;;;;;;;11.35;7.35;;;;;;;5.38;53.26;99310.75;10389883;28;20050;-74
2021/11/25 15:16:46;;;;;;;9.10;7.03;;;;;;;5.14;53.60;99304.16;10388908;28;20136;-74
2021/11/25 15:21:49;;;;;;;8.68;7.18;;;;;;;5.06;54.11;99306.28;10388242;28;20056;-75
2021/11/25 15:26:51;;;;;;;9.45;7.35;;;;;;;5.14;54.01;99311.94;10389103;28;20049;-74
2021/11/25 15:31:53;;;;;;;13.18;7.60;;;;;;;5.02;54.22;99304.72;10383064;28;20077;-74
2021/11/25 15:36:56;;;;;;;10.02;7.80;;;;;;;4.99;54.18;99299.69;10385736;28;20076;-74
2021/11/25 15:41:58;;;;;;;14.15;8.02;;;;;;;5.03;54.42;99303.81;10387994;28;20152;-75
2021/11/25 15:47:02;;;;;;;10.98;7.82;;;;;;;5.02;54.29;99315.09;10387370;28;20053;-74
2021/11/25 15:52:05;;;;;;;11.68;7.63;;;;;;;4.92;54.13;99317.28;10387324;28;20554;-74
2021/11/25 15:57:12;;;;;;;12.15;8.00;;;;;;;4.95;54.15;99318.88;10387114;28;20050;-74
2021/11/25 16:02:15;;;;;;;12.48;8.93;;;;;;;4.86;54.57;99324.50;10387006;28;20096;-75
2021/11/25 16:07:18;;;;;;;15.20;10.13;;;;;;;4.70;54.71;99307.06;10386003;28;20136;-75
2021/11/25 16:12:20;;;;;;;12.38;9.32;;;;;;;4.63;54.94;99300.50;10385141;28;20132;-75
2021/11/25 16:17:22;;;;;;;16.38;11.52;;;;;;;4.49;54.97;99300.28;10386986;28;20056;-74
2021/11/25 16:22:24;;;;;;;14.65;10.20;;;;;;;4.39;55.21;99304.16;10387432;28;20518;-74
2021/11/25 16:27:26;;;;;;;16.73;10.07;;;;;;;4.34;55.45;99305.28;10386882;28;20049;-74
2021/11/25 16:32:28;;;;;;;15.07;9.75;;;;;;;4.41;55.42;99301.53;10387836;28;20041;-75
2021/11/25 16:37:30;;;;;;;14.50;9.85;;;;;;;4.46;55.42;99303.00;10386795;28;20132;-76
2021/11/25 16:42:32;;;;;;;13.88;9.82;;;;;;;4.48;55.41;99314.13;10387512;28;20052;-75
2021/11/25 16:52:54;;;;;;;14.32;10.93;;;;;;;4.52;55.60;99305.31;10387870;28;20049;-76
2021/11/25 16:57:56;;;;;;;15.38;10.20;;;;;;;4.51;55.38;99303.66;10386796;28;20289;-74
2021/11/25 17:03:00;;;;;;;14.50;9.48;;;;;;;4.57;55.39;99295.59;10385622;28;20662;-75
2021/11/25 17:08:02;;;;;;;15.50;11.18;;;;;;;4.60;55.13;99300.63;10385734;28;20049;-76
2021/11/25 17:13:04;;;;;;;16.33;11.45;;;;;;;4.50;54.98;99306.28;10384324;28;20777;-75
2021/11/25 17:18:06;;;;;;;13.60;10.27;;;;;;;4.48;55.26;99314.13;10386554;28;20049;-75
2021/11/25 17:23:08;;;;;;;12.93;9.15;;;;;;;4.45;55.10;99305.66;10385992;28;20134;-76
2021/11/25 17:28:10;;;;;;;12.68;9.48;;;;;;;4.39;55.48;99304.16;10384741;28;20136;-76
2021/11/25 17:33:12;;;;;;;14.15;10.00;;;;;;;4.27;55.59;99299.53;10385748;28;20057;-75
2021/11/25 17:38:15;;;;;;;14.15;10.15;;;;;;;4.14;56.02;99301.00;10385993;28;20144;-75
2021/11/25 17:43:16;;;;;;;16.38;11.88;;;;;;;4.10;56.29;99298.59;10382735;28;20316;-76
2021/11/25 17:48:18;;;;;;;16.08;10.68;;;;;;;4.16;56.07;99294.00;10386224;28;20056;-76
2021/11/25 17:53:21;;;;;;;13.52;10.32;;;;;;;4.18;55.85;99299.94;10386571;28;21058;-76
2021/11/25 17:58:23;;;;;;;16.10;10.95;;;;;;;4.21;55.97;99299.00;10384149;28;20061;-75
2021/11/25 18:03:25;;;;;;;17.17;13.57;;;;;;;4.25;56.19;99301.34;10383811;28;20070;-76
2021/11/25 18:08:27;;;;;;;14.52;11.77;;;;;;;4.25;56.04;99306.53;10385174;28;20573;-75
2021/11/25 18:13:29;;;;;;;18.10;14.73;;;;;;;4.33;56.08;99308.78;10383925;28;20144;-76
2021/11/25 18:18:32;;;;;;;34.85;25.40;;;;;;;4.33;55.90;99301.03;10384920;28;20140;-75
2021/11/25 18:23:35;;;;;;;22.77;16.55;;;;;;;4.34;56.18;99321.66;10383252;28;20075;-76
2021/11/25 18:28:37;;;;;;;37.25;25.42;;;;;;;4.36;56.00;99326.75;10386946;28;20167;-75
2021/11/25 18:33:41;;;;;;;33.25;24.35;;;;;;;4.28;56.30;99321.94;10393227;28;20513;-75
2021/11/25 18:38:43;;;;;;;22.77;17.23;;;;;;;4.39;56.07;99319.69;10393153;28;20052;-74
2021/11/25 18:43:47;;;;;;;22.70;15.32;;;;;;;4.45;55.91;99319.47;10392343;28;20403;-76
2021/11/25 18:48:56;;;;;;;16.08;13.05;;;;;;;4.51;55.87;99324.34;10392793;28;20420;-76
2021/11/25 18:53:59;;;;;;;22.02;17.80;;;;;;;4.46;56.01;99321.13;10394224;28;20140;-75
2021/11/25 18:59:00;;;;;;;18.35;13.63;;;;;;;4.48;55.92;99324.47;10391954;28;20068;-75
2021/11/25 19:04:02;;;;;;;20.98;17.17;;;;;;;4.52;55.99;99325.16;10390413;28;20348;-75
2021/11/25 19:09:07;;;;;;;42.85;27.38;;;;;;;4.59;55.87;99327.44;10391459;28;20067;-75
2021/11/25 19:14:09;;;;;;;17.83;14.20;;;;;;;4.74;55.49;99325.88;10391804;28;20049;-76
2021/11/25 19:19:11;;;;;;;16.70;12.32;;;;;;;4.77;55.38;99325.75;10389833;28;20060;-75
2021/11/25 19:24:13;;;;;;;23.63;13.20;;;;;;;4.72;55.17;99326.88;10390361;28;20544;-75
2021/11/25 19:29:15;;;;;;;20.15;15.25;;;;;;;4.65;55.49;99331.50;10391726;28;20378;-75
2021/11/25 19:34:18;;;;;;;24.95;17.05;;;;;;;4.60;55.62;99323.94;10390244;28;20405;-75
2021/11/25 19:39:20;;;;;;;18.48;12.27;;;;;;;4.65;55.66;99332.34;10390818;28;20320;-74
2021/11/25 19:44:24;;;;;;;16.13;12.38;;;;;;;4.74;55.50;99323.28;10390807;28;20499;-75
2021/11/25 19:49:28;;;;;;;18.17;13.82;;;;;;;4.73;55.55;99319.03;10388887;28;20409;-75
2021/11/25 19:54:30;;;;;;;17.27;12.80;;;;;;;4.78;55.73;99313.66;10390799;28;20107;-75
2021/11/25 19:59:31;;;;;;;19.77;14.30;;;;;;;4.74;55.84;99304.34;10390054;28;20049;-75
2021/11/25 20:04:33;;;;;;;19.48;13.48;;;;;;;4.62;56.06;99305.72;10388410;28;20072;-74
2021/11/25 20:09:35;;;;;;;18.60;13.05;;;;;;;4.51;56.24;99301.06;10388441;28;20502;-73
2021/11/25 20:14:40;;;;;;;21.52;13.60;;;;;;;4.47;56.27;99293.50;10389152;28;20312;-73
2021/11/25 20:19:42;;;;;;;18.38;13.20;;;;;;;4.52;56.38;99284.59;10385404;28;20461;-72
2021/11/25 20:24:44;;;;;;;19.75;14.55;;;;;;;4.49;56.30;99287.34;10385162;28;20087;-73
2021/11/25 20:29:47;;;;;;;17.55;13.30;;;;;;;4.37;56.48;99287.03;10378035;28;20045;-72
2021/11/25 20:34:50;;;;;;;16.17;12.18;;;;;;;4.40;56.62;99282.56;10383975;28;20049;-73
2021/11/25 20:39:51;;;;;;;17.70;12.60;;;;;;;4.36;56.85;99286.19;10386976;28;20514;-72
2021/11/25 20:44:53;;;;;;;16.90;13.07;;;;;;;4.46;56.44;99279.69;10384105;28;20576;-72
2021/11/25 20:49:55;;;;;;;18.27;12.77;;;;;;;4.46;56.66;99273.66;10385886;28;20160;-73
2021/11/25 20:54:57;;;;;;;17.75;12.90;;;;;;;4.46;56.48;99266.75;10386055;28;20052;-72
2021/11/25 20:59:58;;;;;;;18.85;12.73;;;;;;;4.53;56.43;99283.69;10385272;28;20056;-72
2021/11/25 21:05:00;;;;;;;14.90;12.15;;;;;;;4.60;56.27;99279.91;10384360;28;20053;-72
2021/11/25 21:10:04;;;;;;;19.23;12.50;;;;;;;4.69;56.26;99274.31;10383843;28;20053;-72
2021/11/25 21:15:08;;;;;;;18.67;13.90;;;;;;;4.78;56.00;99269.63;10384819;28;20057;-72
2021/11/25 21:20:10;;;;;;;16.48;12.95;;;;;;;4.74;55.92;99255.94;10382267;28;20045;-72
2021/11/25 21:25:18;;;;;;;16.23;11.70;;;;;;;4.76;55.75;99242.94;10382353;28;20053;-72
2021/11/25 21:30:21;;;;;;;14.40;11.45;;;;;;;4.79;56.34;99240.19;10382393;28;20796;-72
2021/11/25 21:35:24;;;;;;;17.98;13.00;;;;;;;4.60;56.16;99229.84;10383382;28;20053;-71
2021/11/25 21:40:26;;;;;;;16.48;13.20;;;;;;;4.40;56.88;99230.78;10382433;28;20226;-71
2021/11/25 21:45:29;;;;;;;17.15;13.82;;;;;;;4.21;57.19;99214.41;10382652;28;20056;-72
2021/11/25 21:50:38;;;;;;;16.38;13.15;;;;;;;3.92;57.32;99212.28;10382433;28;20414;-72
2021/11/25 21:55:41;;;;;;;18.85;14.73;;;;;;;3.70;57.69;99214.94;10381502;28;20071;-72
2021/11/25 22:00:43;;;;;;;21.25;15.27;;;;;;;3.66;58.12;99221.13;10382887;28;20255;-72
2021/11/25 22:05:45;;;;;;;19.83;14.60;;;;;;;3.55;57.95;99219.94;10381137;28;20058;-72
2021/11/25 22:10:48;;;;;;;18.83;14.25;;;;;;;3.63;58.18;99216.13;10379599;28;20405;-64
2021/11/25 22:15:51;;;;;;;19.67;13.95;;;;;;;3.79;58.52;99203.34;10341011;28;1153992;-64
2021/11/25 22:20:55;;;;;;;20.50;14.20;;;;;;;3.82;58.21;99198.88;10381955;28;20053;-64
2021/11/25 22:25:56;;;;;;;21.98;14.73;;;;;;;3.86;58.33;99190.09;10380638;28;20079;-64
2021/11/25 22:30:58;;;;;;;21.70;16.00;;;;;;;4.01;58.44;99182.56;10384387;28;20059;-64
2021/11/25 22:36:00;;;;;;;21.83;15.23;;;;;;;4.11;58.38;99173.50;10384034;28;20051;-64
2021/11/25 22:41:02;;;;;;;21.20;15.52;;;;;;;4.10;58.11;99177.00;10383221;28;20132;-64
2021/11/25 22:46:04;;;;;;;21.38;13.93;;;;;;;4.09;58.31;99175.31;10382072;28;20052;-65
2021/11/25 22:51:06;;;;;;;18.63;13.18;;;;;;;4.12;58.54;99170.84;10382954;28;20055;-64
2021/11/25 22:56:08;;;;;;;21.00;14.75;;;;;;;4.15;58.16;99156.94;10384625;28;20049;-64
2021/11/25 23:01:09;;;;;;;18.15;12.93;;;;;;;4.15;58.53;99154.34;10383766;28;20144;-64
2021/11/25 23:06:11;;;;;;;18.08;13.02;;;;;;;4.17;58.56;99149.94;10382531;28;20522;-64
2021/11/25 23:11:13;;;;;;;18.77;13.80;;;;;;;4.23;58.43;99147.88;10379343;28;20063;-64
2021/11/25 23:16:15;;;;;;;17.60;13.18;;;;;;;4.14;58.44;99142.31;10386227;28;20144;-64
2021/11/25 23:21:17;;;;;;;21.02;13.93;;;;;;;3.97;58.84;99137.03;10387835;28;20050;-64
2021/11/25 23:26:39;;;;;;;19.20;13.45;;;;;;;3.95;59.09;99131.94;10389716;28;20050;-64
2021/11/25 23:31:41;;;;;;;19.27;12.43;;;;;;;4.02;59.27;99122.16;10388032;28;20057;-63
2021/11/25 23:36:43;;;;;;;20.75;12.50;;;;;;;4.13;59.12;99119.94;10389050;28;20092;-64
2021/11/25 23:41:45;;;;;;;18.08;13.25;;;;;;;4.21;58.76;99116.06;10388665;28;20075;-64
2021/11/25 23:46:46;;;;;;;20.95;13.05;;;;;;;4.14;58.84;99101.75;10388762;28;20049;-64